createdAt,value
2022-11-07T00:02:41.781Z,34.23
2022-11-07T00:05:54.955Z,33.28
2022-11-07T00:09:07.522Z,33.35
2022-11-07T00:12:19.380Z,34.93
2022-11-07T00:15:31.373Z,32.35
2022-11-07T00:18:43.946Z,31.75
2022-11-07T00:21:56.843Z,31.48
2022-11-07T00:25:11.614Z,28.95
2022-11-07T00:28:23.952Z,27.18
2022-11-07T00:31:35.972Z,29.43
2022-11-07T00:34:48.498Z,29.23
2022-11-07T00:38:02.237Z,29.85
2022-11-07T00:41:15.322Z,29.03
2022-11-07T00:44:27.217Z,29.55
2022-11-07T00:47:39.279Z,30.88
2022-11-07T00:50:51.596Z,35.73
2022-11-07T00:54:05.581Z,38.30
2022-11-07T00:57:17.381Z,37.68
2022-11-07T01:00:29.252Z,37.30
2022-11-07T01:03:56.032Z,33.95
2022-11-07T01:07:09.489Z,28.88
2022-11-07T01:10:21.395Z,27.73
2022-11-07T01:13:34.014Z,26.28
2022-11-07T01:16:48.744Z,24.53
2022-11-07T01:19:58.945Z,24.83
2022-11-07T01:23:11.105Z,23.83
2022-11-07T01:26:24.124Z,24.65
2022-11-07T01:29:36.249Z,24.23
2022-11-07T01:32:48.046Z,25.03
2022-11-07T01:36:05.906Z,24.40
2022-11-07T01:39:15.960Z,25.05
2022-11-07T01:42:27.982Z,22.70
2022-11-07T01:45:41.238Z,22.38
2022-11-07T01:48:57.842Z,24.45
2022-11-07T01:52:14.480Z,22.70
2022-11-07T01:55:31.161Z,22.45
2022-11-07T01:58:42.974Z,23.70
2022-11-07T02:01:55.989Z,21.80
2022-11-07T02:05:11.594Z,22.15
2022-11-07T02:08:24.039Z,22.45
2022-11-07T02:11:36.376Z,23.25
2022-11-07T02:14:49.245Z,23.90
2022-11-07T02:18:03.370Z,22.38
2022-11-07T02:21:26.642Z,21.20
2022-11-07T02:24:41.877Z,22.88
2022-11-07T02:27:58.632Z,22.88
2022-11-07T02:31:10.960Z,19.33
2022-11-07T02:34:22.898Z,21.95
2022-11-07T02:37:39.181Z,20.15
2022-11-07T02:40:54.235Z,20.93
2022-11-07T02:44:10.780Z,22.48
2022-11-07T02:47:23.486Z,21.03
2022-11-07T02:50:35.333Z,21.77
2022-11-07T02:53:47.458Z,20.45
2022-11-07T02:56:59.268Z,23.08
2022-11-07T03:00:14.859Z,20.85
2022-11-07T03:03:27.319Z,22.45
2022-11-07T03:06:39.110Z,21.90
2022-11-07T03:09:51.185Z,21.05
2022-11-07T03:13:03.059Z,22.95
2022-11-07T03:16:17.392Z,24.18
2022-11-07T03:19:29.424Z,23.73
2022-11-07T03:22:41.276Z,24.63
2022-11-07T03:25:53.219Z,21.63
2022-11-07T03:29:06.132Z,22.80
2022-11-07T03:32:19.130Z,23.40
2022-11-07T03:35:32.006Z,23.73
2022-11-07T03:38:43.951Z,22.78
2022-11-07T03:41:55.784Z,23.78
2022-11-07T03:45:07.759Z,22.83
2022-11-07T03:48:19.826Z,22.43
2022-11-07T03:51:31.779Z,22.55
2022-11-07T03:54:43.548Z,23.38
2022-11-07T03:57:55.925Z,21.48
2022-11-07T04:01:10.312Z,18.85
2022-11-07T04:04:22.237Z,22.83
2022-11-07T04:07:34.067Z,21.85
2022-11-07T04:10:45.854Z,22.50
2022-11-07T04:14:17.778Z,21.60
2022-11-07T04:17:30.515Z,20.18
2022-11-07T04:20:42.585Z,21.75
2022-11-07T04:23:54.367Z,19.73
2022-11-07T04:27:20.896Z,21.73
2022-11-07T04:30:32.778Z,21.10
2022-11-07T04:33:44.731Z,20.63
2022-11-07T04:36:56.542Z,21.20
2022-11-07T04:40:08.926Z,20.63
2022-11-07T04:43:20.732Z,22.83
2022-11-07T04:46:32.496Z,21.15
2022-11-07T04:49:44.268Z,22.25
2022-11-07T04:52:56.526Z,21.43
2022-11-07T04:56:08.260Z,22.83
2022-11-07T04:59:20.040Z,21.48
2022-11-07T05:02:32.889Z,20.00
2022-11-07T05:05:45.389Z,22.60
2022-11-07T05:08:57.565Z,21.60
2022-11-07T05:12:09.921Z,21.85
2022-11-07T05:15:22.310Z,21.50
2022-11-07T05:18:33.999Z,20.05
2022-11-07T05:21:45.743Z,21.18
2022-11-07T05:24:57.560Z,20.28
2022-11-07T05:28:09.615Z,19.13
2022-11-07T05:31:24.038Z,19.10
2022-11-07T05:34:36.228Z,17.85
2022-11-07T05:43:48.584Z,17.60
2022-11-07T05:47:01.752Z,16.70
2022-11-07T05:50:15.573Z,16.98
2022-11-07T05:53:27.832Z,16.45
2022-11-07T05:56:40.882Z,18.83
2022-11-07T06:03:01.758Z,19.20
2022-11-07T06:06:14.329Z,28.33
2022-11-07T06:09:26.373Z,23.13
2022-11-07T06:15:40.936Z,19.35
2022-11-07T06:18:51.392Z,18.98
2022-11-07T06:22:03.958Z,18.13
2022-11-07T06:25:16.789Z,18.78
2022-11-07T06:28:29.128Z,21.25
2022-11-07T06:31:41.287Z,23.28
2022-11-07T06:34:53.480Z,25.25
2022-11-07T06:38:09.566Z,20.43
2022-11-07T06:41:22.088Z,21.50
2022-11-07T06:44:34.315Z,20.65
2022-11-07T06:47:46.520Z,20.25
2022-11-07T06:51:06.042Z,20.13
2022-11-07T06:54:17.930Z,18.93
2022-11-07T06:57:29.725Z,20.80
2022-11-07T07:00:42.726Z,20.05
2022-11-07T07:03:54.519Z,20.23
2022-11-07T07:07:06.192Z,20.28
2022-11-07T07:10:19.456Z,20.38
2022-11-07T07:13:31.193Z,18.03
2022-11-07T07:16:43.003Z,20.78
2022-11-07T07:19:54.752Z,20.60
2022-11-07T07:23:06.609Z,26.85
2022-11-07T07:26:20.860Z,23.88
2022-11-07T07:29:32.777Z,21.33
2022-11-07T07:32:44.809Z,18.83
2022-11-07T07:35:56.529Z,19.78
2022-11-07T07:39:08.466Z,22.28
2022-11-07T07:42:20.175Z,19.70
2022-11-07T07:45:32.595Z,18.70
2022-11-07T07:48:44.393Z,25.18
2022-11-07T07:51:56.131Z,23.50
2022-11-07T07:55:09.409Z,24.85
2022-11-07T07:58:21.648Z,19.98
2022-11-07T08:01:33.505Z,20.25
2022-11-07T08:04:46.255Z,19.78
2022-11-07T08:07:58.416Z,19.95
2022-11-07T08:11:12.680Z,19.50
2022-11-07T08:14:24.629Z,60.80
2022-11-07T08:17:36.468Z,45.98
2022-11-07T08:20:48.403Z,67.78
2022-11-07T08:24:01.104Z,27.65
2022-11-07T08:27:12.858Z,22.53
2022-11-07T08:30:26.821Z,20.00
2022-11-07T08:33:39.165Z,18.15
2022-11-07T08:36:51.517Z,19.80
2022-11-07T08:40:03.357Z,18.75
2022-11-07T08:43:17.282Z,18.78
2022-11-07T08:46:29.655Z,16.70
2022-11-07T08:49:41.351Z,18.50
2022-11-07T08:52:55.001Z,18.05
2022-11-07T08:56:15.259Z,18.10
2022-11-07T08:59:27.248Z,36.50
2022-11-07T09:08:52.830Z,17.05
2022-11-07T09:12:04.871Z,17.48
2022-11-07T09:15:18.845Z,17.65
2022-11-07T09:18:30.749Z,18.65
2022-11-07T09:21:45.031Z,18.23
2022-11-07T09:24:56.781Z,17.40
2022-11-07T09:28:11.408Z,17.25
2022-11-07T09:31:23.532Z,14.43
2022-11-07T09:34:35.360Z,14.85
2022-11-07T09:37:47.763Z,12.90
2022-11-07T09:41:07.966Z,11.15
2022-11-07T09:44:37.581Z,11.90
2022-11-07T09:47:55.259Z,12.80
2022-11-07T09:51:07.263Z,13.28
2022-11-07T09:54:24.967Z,12.28
2022-11-07T09:57:40.046Z,12.35
2022-11-07T10:00:52.542Z,13.05
2022-11-07T10:04:24.310Z,12.35
2022-11-07T10:07:26.497Z,13.95
2022-11-07T10:10:47.264Z,14.33
2022-11-07T10:14:23.125Z,14.85
2022-11-07T10:17:40.365Z,20.30
2022-11-07T10:21:23.009Z,14.65
2022-11-07T10:24:30.688Z,14.58
2022-11-07T10:27:44.288Z,14.23
2022-11-07T10:30:58.537Z,13.80
2022-11-07T10:34:17.774Z,15.80
2022-11-07T10:37:29.654Z,14.93
2022-11-07T10:40:46.074Z,15.30
2022-11-07T10:44:02.971Z,14.30
2022-11-07T10:47:26.561Z,13.18
2022-11-07T10:50:38.687Z,13.40
2022-11-07T10:53:52.425Z,13.18
2022-11-07T10:57:11.484Z,11.05
2022-11-07T11:00:33.357Z,11.25
2022-11-07T11:03:51.022Z,11.08
2022-11-07T11:07:08.627Z,9.98
2022-11-07T11:10:30.989Z,9.38
2022-11-07T11:13:42.665Z,8.33
2022-11-07T11:16:59.352Z,8.70
2022-11-07T11:20:26.492Z,7.45
2022-11-07T11:23:41.427Z,8.20
2022-11-07T11:26:56.764Z,9.30
2022-11-07T11:30:14.183Z,11.70
2022-11-07T11:33:32.112Z,6.33
2022-11-07T11:36:49.151Z,6.35
2022-11-07T11:43:26.555Z,6.28
2022-11-07T11:46:42.739Z,5.40
2022-11-07T11:50:00.100Z,5.60
2022-11-07T11:53:15.468Z,6.08
2022-11-07T11:57:02.981Z,5.63
2022-11-07T12:00:19.807Z,4.95
2022-11-07T12:03:57.030Z,4.83
2022-11-07T12:07:16.511Z,4.80
2022-11-07T12:10:36.175Z,5.28
2022-11-07T12:13:52.979Z,4.30
2022-11-07T12:17:11.665Z,4.93
2022-11-07T12:20:32.376Z,4.18
2022-11-07T12:24:13.459Z,4.10
2022-11-07T12:27:32.416Z,4.28
2022-11-07T12:30:52.519Z,4.25
2022-11-07T12:34:13.092Z,4.25
2022-11-07T12:37:57.408Z,4.48
2022-11-07T12:41:20.176Z,4.40
2022-11-07T12:44:53.504Z,4.68
2022-11-07T12:48:36.908Z,4.23
2022-11-07T12:51:59.577Z,5.23
2022-11-07T12:55:21.010Z,4.00
2022-11-07T12:58:36.993Z,3.28
2022-11-07T13:01:53.897Z,3.65
2022-11-07T13:05:17.499Z,3.30
2022-11-07T13:08:35.466Z,2.98
2022-11-07T13:11:52.983Z,3.05
2022-11-07T13:15:05.532Z,3.28
2022-11-07T13:18:30.889Z,2.90
2022-11-07T13:21:49.195Z,2.88
2022-11-07T13:25:16.793Z,2.98
2022-11-07T13:28:48.812Z,4.98
2022-11-07T13:32:15.936Z,3.45
2022-11-07T13:35:36.517Z,3.20
2022-11-07T13:38:54.914Z,3.45
2022-11-07T13:42:09.489Z,3.83
2022-11-07T13:45:32.183Z,3.20
2022-11-07T13:48:53.032Z,3.40
2022-11-07T13:52:11.137Z,3.25
2022-11-07T13:55:28.117Z,3.18
2022-11-07T14:01:54.552Z,3.43
2022-11-07T14:05:17.364Z,3.73
2022-11-07T14:08:32.498Z,3.35
2022-11-07T14:11:45.508Z,3.33
2022-11-07T14:15:00.249Z,3.50
2022-11-07T14:18:15.765Z,3.23
2022-11-07T14:21:35.317Z,3.33
2022-11-07T14:24:51.087Z,3.65
2022-11-07T14:28:03.245Z,3.05
2022-11-07T14:31:22.750Z,3.03
2022-11-07T14:34:34.719Z,2.90
2022-11-07T14:37:46.555Z,3.10
2022-11-07T14:41:00.748Z,3.65
2022-11-07T14:44:17.112Z,5.10
2022-11-07T14:47:32.439Z,21.93
2022-11-07T14:50:46.633Z,5.58
2022-11-07T14:54:03.864Z,4.10
2022-11-07T14:57:19.657Z,3.60
2022-11-07T15:00:32.357Z,3.63
2022-11-07T15:03:56.293Z,3.90
2022-11-07T15:07:18.835Z,3.70
2022-11-07T15:10:39.384Z,3.73
2022-11-07T15:13:54.376Z,3.53
2022-11-07T15:17:08.093Z,4.45
2022-11-07T15:20:30.148Z,3.43
2022-11-07T15:23:42.481Z,3.68
2022-11-07T15:27:06.031Z,3.53
2022-11-07T15:30:34.797Z,3.25
2022-11-07T15:33:46.644Z,3.60
2022-11-07T15:36:58.575Z,4.00
2022-11-07T15:40:22.346Z,3.88
2022-11-07T15:43:34.237Z,4.23
2022-11-07T15:46:47.241Z,3.83
2022-11-07T15:49:59.261Z,4.10
2022-11-07T15:53:13.859Z,4.28
2022-11-07T15:56:29.470Z,4.33
2022-11-07T15:59:43.795Z,4.28
2022-11-07T16:02:55.829Z,3.88
2022-11-07T16:06:13.695Z,4.48
2022-11-07T16:15:28.407Z,5.20
2022-11-07T16:27:40.513Z,5.48
2022-11-07T16:30:52.379Z,5.45
2022-11-07T16:34:04.262Z,5.93
2022-11-07T16:37:17.203Z,5.70
2022-11-07T16:40:29.141Z,6.00
2022-11-07T16:43:41.012Z,5.80
2022-11-07T16:46:53.083Z,6.18
2022-11-07T16:50:07.796Z,6.15
2022-11-07T16:53:20.693Z,7.33
2022-11-07T16:56:36.136Z,6.68
2022-11-07T16:59:51.067Z,6.90
2022-11-07T17:03:03.416Z,7.08
2022-11-07T17:06:24.465Z,7.45
2022-11-07T17:09:36.417Z,6.98
2022-11-07T17:12:48.695Z,7.25
2022-11-07T17:16:00.678Z,6.88
2022-11-07T17:19:14.918Z,8.80
2022-11-07T17:22:26.847Z,7.63
2022-11-07T17:25:38.891Z,7.48
2022-11-07T17:28:50.830Z,8.28
2022-11-07T17:32:02.672Z,8.20
2022-11-07T17:35:31.543Z,8.55
2022-11-07T17:38:31.118Z,11.25
2022-11-07T17:41:43.732Z,9.50
2022-11-07T17:44:55.896Z,8.53
2022-11-07T17:48:07.763Z,8.55
2022-11-07T17:51:19.889Z,9.43
2022-11-07T17:54:31.934Z,8.50
2022-11-07T17:57:44.637Z,8.33
2022-11-07T18:00:56.699Z,8.00
2022-11-07T18:04:10.994Z,10.20
2022-11-07T18:07:23.192Z,11.53
2022-11-07T18:10:35.266Z,9.88
2022-11-07T18:13:47.192Z,10.63
2022-11-07T18:16:59.213Z,10.60
2022-11-07T18:20:13.873Z,9.50
2022-11-07T18:23:25.834Z,9.83
2022-11-07T18:26:38.500Z,9.88
2022-11-07T18:29:50.567Z,10.30
2022-11-07T18:33:02.380Z,10.60
2022-11-07T18:36:19.462Z,12.78
2022-11-07T18:42:41.183Z,10.90
2022-11-07T18:45:53.009Z,12.23
2022-11-07T18:49:06.325Z,12.45
2022-11-07T18:52:19.068Z,12.88
2022-11-07T18:55:30.862Z,12.05
2022-11-07T18:58:44.744Z,12.40
2022-11-07T19:01:56.662Z,12.65
2022-11-07T19:05:09.110Z,22.03
2022-11-07T19:08:21.329Z,18.75
2022-11-07T19:11:36.244Z,20.90
2022-11-07T19:14:48.118Z,14.40
2022-11-07T19:17:59.861Z,12.63
2022-11-07T19:21:18.847Z,15.88
2022-11-07T19:24:26.009Z,14.15
2022-11-07T19:27:38.480Z,12.83
2022-11-07T19:30:50.780Z,12.45
2022-11-07T19:34:02.776Z,11.63
2022-11-07T19:37:14.884Z,12.58
2022-11-07T19:40:26.868Z,11.68
2022-11-07T19:43:39.338Z,11.78
2022-11-07T19:46:51.257Z,53.95
2022-11-07T19:50:03.702Z,13.85
2022-11-07T19:53:15.833Z,12.20
2022-11-07T19:56:29.239Z,11.23
2022-11-07T19:59:41.086Z,11.78
2022-11-07T20:02:55.634Z,16.63
2022-11-07T20:06:07.964Z,17.48
2022-11-07T20:09:20.248Z,17.05
2022-11-07T20:12:32.063Z,14.90
2022-11-07T20:15:46.007Z,13.45
2022-11-07T20:18:58.267Z,13.15
2022-11-07T20:22:12.147Z,12.88
2022-11-07T20:25:24.062Z,12.48
2022-11-07T20:28:37.202Z,11.90
2022-11-07T20:31:49.700Z,12.53
2022-11-07T20:35:01.576Z,12.38
2022-11-07T20:38:13.550Z,12.63
2022-11-07T20:41:27.274Z,12.75
2022-11-07T20:44:40.560Z,13.05
2022-11-07T20:47:52.531Z,13.05
2022-11-07T20:51:04.343Z,14.35
2022-11-07T20:54:18.825Z,13.95
2022-11-07T20:57:29.807Z,14.53
2022-11-07T21:00:42.529Z,14.18
2022-11-07T21:03:55.054Z,14.78
2022-11-07T21:07:06.842Z,13.85
2022-11-07T21:10:19.174Z,15.08
2022-11-07T21:13:30.851Z,15.93
2022-11-07T21:16:42.805Z,15.75
2022-11-07T21:19:54.809Z,14.48
2022-11-07T21:23:07.223Z,14.23
2022-11-07T21:26:22.615Z,15.03
2022-11-07T21:29:36.046Z,15.33
2022-11-07T21:32:48.108Z,15.58
2022-11-07T21:35:59.890Z,16.43
2022-11-07T21:39:12.486Z,15.48
2022-11-07T21:42:24.337Z,15.33
2022-11-07T21:45:36.032Z,15.70
2022-11-07T21:48:48.745Z,15.30
2022-11-07T21:52:00.907Z,15.40
2022-11-07T21:55:14.033Z,15.30
2022-11-07T21:58:25.707Z,15.30
2022-11-07T22:01:38.761Z,14.90
2022-11-07T22:04:50.773Z,14.10
2022-11-07T22:08:04.511Z,14.40
2022-11-07T22:11:16.236Z,13.38
2022-11-07T22:14:29.011Z,16.00
2022-11-07T22:17:40.687Z,19.85
2022-11-07T22:20:54.278Z,19.48
2022-11-07T22:24:06.130Z,16.58
2022-11-07T22:27:17.920Z,15.08
2022-11-07T22:30:29.797Z,15.33
2022-11-07T22:33:42.725Z,13.68
2022-11-07T22:36:54.700Z,12.70
2022-11-07T22:40:06.657Z,12.85
2022-11-07T22:43:19.437Z,11.85
2022-11-07T22:46:34.025Z,11.80
2022-11-07T22:49:45.943Z,12.85
2022-11-07T22:52:57.741Z,13.03
2022-11-07T22:56:17.978Z,12.85
2022-11-07T22:59:29.881Z,12.73
2022-11-07T23:02:41.770Z,12.55
2022-11-07T23:05:53.945Z,12.28
2022-11-07T23:09:06.807Z,12.08
2022-11-07T23:12:18.586Z,12.20
2022-11-07T23:15:30.542Z,12.80
2022-11-07T23:18:42.311Z,16.55
2022-11-07T23:21:54.932Z,26.35
2022-11-07T23:25:07.130Z,36.60
2022-11-07T23:28:19.144Z,30.18
2022-11-07T23:31:31.328Z,29.03
2022-11-07T23:34:43.551Z,25.85
2022-11-07T23:37:56.102Z,21.20
2022-11-07T23:41:12.165Z,20.78
2022-11-07T23:44:24.467Z,16.45
2022-11-07T23:47:50.682Z,29.90
2022-11-07T23:51:07.826Z,23.02
2022-11-07T23:58:13.476Z,15.80
